Oats, South Carolina
Current Conditions -  °F | °C
As of 3:55 AM on Thursday 23 Oct 2014 (Local Time) from KHVS Reporting Station
Clear Clear  
Wind Chill: 48°   Ceiling: Unl
Heat Index: 48°   Visibility: 10mi
Dew Point: 30°   Wind: 3mph
Humidity: 50%   Direction: 320°NW
Pressure: 30.05"   Gusts: NA
Location:  34.1883°N, 80.0384°W
Report Text: KHVS 230755Z AUTO 32003KT 10SM CLR 09/M01 A3005 RMK AO2
Loading
Personal Weather Stations






























Interactive Weather Map
Tropical Storm Tracking
New forecast layout! Learn more

10-Day Weather Forecast

Advertisements
Track Severe Weather on mobile